Portada
METAR-TAF:

METAR-TAF

Aeroports :

Bratsk, Rússia

latitud: 56-22-15N, longitud: 101-41-55E, altitud: 490 m

Observació

L'informe es va fer fa 38 minuts, a les 23:00 UTC
Vent 10 kt del Est/Nord-Est
Temperatura 12°C
Humitat 94%
Pressió 1003 hPa
Visibilitat: 4200 m
Cel ennuvolat a una alçada de 4600 ft, Cumulonimbus.
fum

METAR: UIBB 192300Z 07005MPS 4200 FU BKN046CB 12/11 Q1003 R30/290150 NOSIG RMK QFE709/0946

Hora: 07:38 (23:38 UTC)

Pronòstic

L'informe es va fer fa 38 minuts, a les 23:00 UTC
Pronòstic vàlid del 20 a les 00 UTC al 20 a les 24 UTC
Vent 6 kt del Est/Nord-Est amb ràfegues de 16 kt
Visibilitat: 5000 m
Cel ennuvolat a una alçada de 1600 ft, Cumulonimbus.
xàfecs de pluja, fum
Temporalment
l' 20 a les 00 UTC al 20 a les 09 UTC
Cel ennuvolat a una alçada de 500 ft
Cel ennuvolat a una alçada de 1600 ft, Cumulonimbus.

TAF: UIBB 192300Z 2000/2024 06003G08MPS 5000 -SHRA FU BKN016CB TEMPO 2000/2009 BKN005 BKN016CB

Observacions i pronòstics meteorològics de més de 4000 aeroports (METAR i TAF).

Les estacions disponibles són els punts grocs i vermells al mapa.

Posi el ratolí al punt desitjat per veure el nom de l'estació.

Feu clic per veure les observacions i els pronòstics meteorològics.

Per canviar el mapa: feu clic els botons verds amb una creu de color negre per apropar; al botó verd amb un guió per allunyar la imatge; o en les fletxes verdes per a mapes adjacents.


METAR-TAF: